Time,TemperatureF,DewpointF,PressureIn,WindDirection,WindDirectionDegrees,WindSpeedMPH,WindSpeedGustMPH,Humidity,HourlyPrecipIn,Conditions,Clouds,dailyrainin,SoftwareType,DateUTC
2013-05-28 00:00:00,50.5,49.7,30.03,SSE,148,2.0,2.0,97,0.00,,,0.57,Wunderground v.1.15,2013-05-28 04:00:00,
2013-05-28 00:05:00,50.5,49.7,30.02,ESE,103,1.0,5.0,97,0.00,,,0.00,Wunderground v.1.15,2013-05-28 04:05:00,
2013-05-28 00:10:00,50.5,49.7,30.02,ESE,117,2.0,2.0,97,0.00,,,0.00,Wunderground v.1.15,2013-05-28 04:10:00,
2013-05-28 00:15:00,50.5,49.7,30.02,ESE,105,2.0,2.0,97,0.00,,,0.00,Wunderground v.1.15,2013-05-28 04:15:00,
2013-05-28 00:20:00,50.5,49.7,30.02,ESE,105,1.0,1.0,97,0.00,,,0.00,Wunderground v.1.15,2013-05-28 04:20:00,
2013-05-28 00:30:00,50.6,49.8,30.02,East,96,1.0,3.0,97,0.00,,,0.00,Wunderground v.1.15,2013-05-28 04:30:00,
2013-05-28 00:40:00,50.6,49.8,30.02,ESE,110,2.0,5.0,97,0.00,,,0.00,Wunderground v.1.15,2013-05-28 04:40:00,
2013-05-28 00:45:00,50.7,49.9,30.02,ESE,103,1.0,5.0,97,0.00,,,0.00,Wunderground v.1.15,2013-05-28 04:45:00,
2013-05-28 00:55:00,50.8,50.0,30.01,East,94,1.0,6.0,97,0.00,,,0.00,Wunderground v.1.15,2013-05-28 04:55:00,
2013-05-28 01:05:00,50.8,50.0,30.00,SE,124,1.0,6.0,97,0.00,,,0.00,Wunderground v.1.15,2013-05-28 05:05:00,
2013-05-28 01:15:00,50.8,50.0,30.00,ESE,105,2.0,6.0,97,0.00,,,0.00,Wunderground v.1.15,2013-05-28 05:15:00,
2013-05-28 01:25:00,50.9,50.1,29.99,ESE,109,1.0,6.0,97,0.00,,,0.00,Wunderground v.1.15,2013-05-28 05:25:00,
2013-05-28 01:35:00,50.9,50.1,29.99,ESE,104,2.0,6.0,97,0.00,,,0.01,Wunderground v.1.15,2013-05-28 05:35:00,
2013-05-28 01:45:00,51.0,50.2,29.99,ESE,109,2.0,6.0,97,0.00,,,0.01,Wunderground v.1.15,2013-05-28 05:45:00,
2013-05-28 01:55:00,51.1,50.3,29.99,ESE,110,1.0,6.0,97,0.00,,,0.01,Wunderground v.1.15,2013-05-28 05:55:00,
2013-05-28 02:00:00,51.2,50.4,29.99,East,96,1.0,2.0,97,0.00,,,0.01,Wunderground v.1.15,2013-05-28 06:00:00,
2013-05-28 02:10:00,51.2,50.4,29.99,NW,321,0.0,0.0,97,0.00,,,0.01,Wunderground v.1.15,2013-05-28 06:10:00,
2013-05-28 02:15:00,51.3,50.5,29.99,ESE,117,0.0,1.0,97,0.00,,,0.01,Wunderground v.1.15,2013-05-28 06:15:00,
2013-05-28 02:25:00,51.4,50.6,29.98,ESE,109,1.0,1.0,97,0.00,,,0.01,Wunderground v.1.15,2013-05-28 06:25:00,
2013-05-28 02:35:00,51.4,50.6,29.98,ENE,72,0.0,1.0,97,0.00,,,0.01,Wunderground v.1.15,2013-05-28 06:35:00,
2013-05-28 02:45:00,51.4,50.6,29.97,ESE,102,1.0,1.0,97,0.00,,,0.01,Wunderground v.1.15,2013-05-28 06:45:00,
2013-05-28 02:55:00,51.4,50.6,29.97,East,86,1.0,6.0,97,0.00,,,0.01,Wunderground v.1.15,2013-05-28 06:55:00,
2013-05-28 03:05:00,51.5,50.7,29.97,ESE,119,1.0,6.0,97,0.00,,,0.01,Wunderground v.1.15,2013-05-28 07:05:00,
2013-05-28 03:15:00,51.5,50.7,29.96,ESE,103,1.0,6.0,97,0.00,,,0.01,Wunderground v.1.15,2013-05-28 07:15:00,
2013-05-28 03:25:00,51.5,50.7,29.96,SE,127,1.0,6.0,97,0.00,,,0.02,Wunderground v.1.15,2013-05-28 07:25:00,
2013-05-28 03:35:00,51.6,50.8,29.95,ESE,107,1.0,6.0,97,0.00,,,0.02,Wunderground v.1.15,2013-05-28 07:35:00,
2013-05-28 03:45:00,51.6,50.8,29.95,ESE,105,0.0,6.0,97,0.00,,,0.02,Wunderground v.1.15,2013-05-28 07:45:00,
2013-05-28 03:55:00,51.6,50.8,29.95,SE,127,0.0,6.0,97,0.00,,,0.03,Wunderground v.1.15,2013-05-28 07:55:00,
2013-05-28 04:00:00,51.6,50.8,29.95,ESE,114,0.0,0.0,97,0.00,,,0.03,Wunderground v.1.15,2013-05-28 08:00:00,
2013-05-28 04:10:00,51.6,50.8,29.95,ESE,105,0.0,0.0,97,0.10,,,0.10,Wunderground v.1.15,2013-05-28 08:10:00,
2013-05-28 04:15:00,51.7,50.9,29.95,ESE,114,0.0,0.0,97,0.05,,,0.10,Wunderground v.1.15,2013-05-28 08:15:00,
2013-05-28 04:25:00,51.7,50.9,29.95,ESE,102,0.0,0.0,97,0.05,,,0.11,Wunderground v.1.15,2013-05-28 08:25:00,
2013-05-28 04:35:00,51.7,50.9,29.95,ESE,119,1.0,1.0,97,0.00,,,0.11,Wunderground v.1.15,2013-05-28 08:35:00,
2013-05-28 04:40:00,51.8,51.0,29.95,ESE,108,1.0,1.0,97,0.00,,,0.11,Wunderground v.1.15,2013-05-28 08:40:00,
2013-05-28 04:50:00,51.8,51.3,29.95,ESE,113,0.0,3.0,98,0.00,,,0.11,Wunderground v.1.15,2013-05-28 08:50:00,
2013-05-28 04:55:00,51.8,51.3,29.94,ESE,108,1.0,3.0,98,0.00,,,0.11,Wunderground v.1.15,2013-05-28 08:55:00,
2013-05-28 05:05:00,51.9,51.4,29.94,ESE,105,1.0,3.0,98,0.00,,,0.11,Wunderground v.1.15,2013-05-28 09:05:00,
2013-05-28 05:15:00,52.0,51.5,29.95,ESE,108,0.0,3.0,98,0.00,,,0.11,Wunderground v.1.15,2013-05-28 09:15:00,
2013-05-28 05:25:00,52.0,51.5,29.95,ESE,117,0.0,3.0,98,0.00,,,0.11,Wunderground v.1.15,2013-05-28 09:25:00,
2013-05-28 05:35:00,52.0,51.5,29.95,East,100,0.0,3.0,98,0.00,,,0.11,Wunderground v.1.15,2013-05-28 09:35:00,
2013-05-28 05:45:00,52.1,51.6,29.95,ESE,113,0.0,3.0,98,0.00,,,0.11,Wunderground v.1.15,2013-05-28 09:45:00,
2013-05-28 05:55:00,52.2,51.7,29.95,ESE,113,0.0,3.0,98,0.00,,,0.11,Wunderground v.1.15,2013-05-28 09:55:00,
2013-05-28 06:00:00,52.2,51.7,29.95,ESE,114,0.0,0.0,98,0.00,,,0.11,Wunderground v.1.15,2013-05-28 10:00:00,
2013-05-28 06:10:00,52.3,51.8,29.95,ESE,102,0.0,0.0,98,0.00,,,0.11,Wunderground v.1.15,2013-05-28 10:10:00,
2013-05-28 06:20:00,52.4,51.9,29.95,East,87,0.0,0.0,98,0.00,,,0.11,Wunderground v.1.15,2013-05-28 10:20:00,
2013-05-28 06:30:00,52.5,52.0,29.96,East,93,0.0,0.0,98,0.00,,,0.11,Wunderground v.1.15,2013-05-28 10:30:00,
2013-05-28 06:40:00,52.5,52.0,29.97,ESE,110,0.0,1.0,98,0.00,,,0.11,Wunderground v.1.15,2013-05-28 10:40:00,
2013-05-28 06:50:00,52.6,52.1,29.96,ESE,110,0.0,2.0,98,0.00,,,0.11,Wunderground v.1.15,2013-05-28 10:50:00,
2013-05-28 07:00:00,52.6,52.1,29.97,ESE,105,0.0,2.0,98,0.00,,,0.11,Wunderground v.1.15,2013-05-28 11:00:00,
2013-05-28 07:10:00,52.7,52.2,29.96,ESE,105,1.0,1.0,98,0.00,,,0.11,Wunderground v.1.15,2013-05-28 11:10:00,
2013-05-28 07:20:00,52.8,52.3,29.96,ESE,107,1.0,1.0,98,0.00,,,0.11,Wunderground v.1.15,2013-05-28 11:20:00,
2013-05-28 07:30:00,52.9,52.4,29.95,ESE,110,1.0,1.0,98,0.00,,,0.11,Wunderground v.1.15,2013-05-28 11:30:00,
2013-05-28 07:40:00,53.0,52.5,29.96,ESE,107,1.0,1.0,98,0.00,,,0.11,Wunderground v.1.15,2013-05-28 11:40:00,
2013-05-28 07:50:00,53.1,52.6,29.96,ESE,108,0.0,2.0,98,0.00,,,0.11,Wunderground v.1.15,2013-05-28 11:50:00,
2013-05-28 08:00:00,53.2,52.7,29.97,ESE,109,0.0,0.0,98,0.00,,,0.11,Wunderground v.1.15,2013-05-28 12:00:00,
2013-05-28 08:10:00,53.4,52.8,29.97,ESE,108,0.0,0.0,98,0.00,,,0.11,Wunderground v.1.15,2013-05-28 12:10:00,
2013-05-28 08:15:00,53.4,52.8,29.98,ESE,108,0.0,0.0,98,0.00,,,0.11,Wunderground v.1.15,2013-05-28 12:15:00,
2013-05-28 08:25:00,53.5,52.9,29.98,ESE,109,0.0,0.0,98,0.00,,,0.11,Wunderground v.1.15,2013-05-28 12:25:00,
2013-05-28 08:35:00,53.5,52.9,29.96,ESE,109,0.0,0.0,98,0.00,,,0.12,Wunderground v.1.15,2013-05-28 12:35:00,
2013-05-28 08:45:00,53.6,53.0,29.95,ESE,113,0.0,1.0,98,0.18,,,0.14,Wunderground v.1.15,2013-05-28 12:45:00,
2013-05-28 08:55:00,53.7,53.1,29.95,ESE,110,1.0,4.0,98,0.10,,,0.16,Wunderground v.1.15,2013-05-28 12:55:00,
2013-05-28 09:05:00,53.8,53.2,29.94,ESE,110,0.0,4.0,98,0.04,,,0.17,Wunderground v.1.15,2013-05-28 13:05:00,
2013-05-28 09:10:00,53.9,53.3,29.95,ESE,104,0.0,4.0,98,0.04,,,0.17,Wunderground v.1.15,2013-05-28 13:10:00,
2013-05-28 09:20:00,54.0,53.4,29.95,ESE,103,1.0,1.0,98,0.04,,,0.17,Wunderground v.1.15,2013-05-28 13:20:00,
2013-05-28 09:30:00,54.1,53.5,29.93,NNW,329,1.0,4.0,98,0.00,,,0.18,Wunderground v.1.15,2013-05-28 13:30:00,
2013-05-28 09:35:00,54.3,53.7,29.93,NNW,328,1.0,4.0,98,0.00,,,0.18,Wunderground v.1.15,2013-05-28 13:35:00,
2013-05-28 09:45:00,54.7,54.1,29.94,ESE,112,0.0,4.0,98,0.00,,,0.18,Wunderground v.1.15,2013-05-28 13:45:00,
2013-05-28 09:55:00,55.0,54.4,29.93,ESE,105,0.0,4.0,98,0.00,,,0.18,Wunderground v.1.15,2013-05-28 13:55:00,
2013-05-28 10:00:00,55.3,54.7,29.92,ESE,115,0.0,0.0,98,0.00,,,0.18,Wunderground v.1.15,2013-05-28 14:00:00,
2013-05-28 10:10:00,56.2,55.6,29.93,East,84,0.0,1.0,98,0.00,,,0.18,Wunderground v.1.15,2013-05-28 14:10:00,
2013-05-28 10:15:00,56.3,55.7,29.93,ESE,110,0.0,1.0,98,0.00,,,0.18,Wunderground v.1.15,2013-05-28 14:15:00,
2013-05-28 10:25:00,56.5,55.9,29.94,ESE,110,0.0,0.0,98,0.00,,,0.19,Wunderground v.1.15,2013-05-28 14:25:00,
2013-05-28 10:30:00,56.6,56.0,29.95,ESE,110,0.0,0.0,98,0.00,,,0.19,Wunderground v.1.15,2013-05-28 14:30:00,
2013-05-28 10:40:00,56.4,55.8,29.96,West,278,0.0,0.0,98,0.06,,,0.20,Wunderground v.1.15,2013-05-28 14:40:00,
2013-05-28 10:50:00,56.1,55.5,29.95,ESE,118,0.0,3.0,98,0.00,,,0.20,Wunderground v.1.15,2013-05-28 14:50:00,
2013-05-28 10:55:00,56.2,55.6,29.94,ESE,108,0.0,3.0,98,0.00,,,0.20,Wunderground v.1.15,2013-05-28 14:55:00,
2013-05-28 11:05:00,56.6,56.0,29.95,East,84,0.0,3.0,98,0.00,,,0.20,Wunderground v.1.15,2013-05-28 15:05:00,
2013-05-28 11:15:00,56.6,56.0,29.95,ESE,108,0.0,3.0,98,0.00,,,0.20,Wunderground v.1.15,2013-05-28 15:15:00,
2013-05-28 11:25:00,57.0,56.4,29.94,East,100,1.0,3.0,98,0.00,,,0.20,Wunderground v.1.15,2013-05-28 15:25:00,
2013-05-28 11:35:00,57.3,56.7,29.94,ENE,60,1.0,3.0,98,0.00,,,0.20,Wunderground v.1.15,2013-05-28 15:35:00,
2013-05-28 11:45:00,57.5,56.9,29.94,ESE,107,2.0,3.0,98,0.00,,,0.20,Wunderground v.1.15,2013-05-28 15:45:00,
2013-05-28 11:55:00,58.4,57.8,29.93,ESE,105,2.0,3.0,98,0.00,,,0.20,Wunderground v.1.15,2013-05-28 15:55:00,
2013-05-28 12:00:00,58.6,58.0,29.92,East,96,2.0,5.0,98,0.00,,,0.21,Wunderground v.1.15,2013-05-28 16:00:00,
2013-05-28 12:10:00,59.1,58.5,29.92,East,101,1.0,4.0,98,0.00,,,0.21,Wunderground v.1.15,2013-05-28 16:10:00,
2013-05-28 12:20:00,59.5,58.9,29.92,East,93,2.0,5.0,98,0.00,,,0.21,Wunderground v.1.15,2013-05-28 16:20:00,
2013-05-28 12:30:00,60.1,59.5,29.91,East,91,2.0,5.0,98,0.00,,,0.21,Wunderground v.1.15,2013-05-28 16:30:00,
2013-05-28 12:35:00,60.5,59.9,29.90,East,91,1.0,5.0,98,0.00,,,0.21,Wunderground v.1.15,2013-05-28 16:35:00,
2013-05-28 12:45:00,61.1,60.2,29.90,ESE,107,3.0,4.0,97,0.00,,,0.21,Wunderground v.1.15,2013-05-28 16:45:00,
2013-05-28 12:55:00,61.8,60.9,29.91,ESE,114,2.0,4.0,97,0.00,,,0.21,Wunderground v.1.15,2013-05-28 16:55:00,
2013-05-28 13:00:00,62.1,61.2,29.91,East,98,1.0,4.0,97,0.00,,,0.21,Wunderground v.1.15,2013-05-28 17:00:00,
2013-05-28 13:10:00,62.3,61.4,29.91,ENE,71,1.0,4.0,97,0.00,,,0.21,Wunderground v.1.15,2013-05-28 17:10:00,
2013-05-28 13:20:00,62.6,61.7,29.90,East,80,1.0,4.0,97,0.00,,,0.21,Wunderground v.1.15,2013-05-28 17:20:00,
2013-05-28 13:30:00,63.2,62.3,29.89,ESE,108,1.0,1.0,97,0.00,,,0.21,Wunderground v.1.15,2013-05-28 17:30:00,
2013-05-28 13:35:00,63.8,62.9,29.89,East,96,1.0,2.0,97,0.00,,,0.21,Wunderground v.1.15,2013-05-28 17:35:00,
2013-05-28 13:45:00,64.4,63.2,29.90,East,98,1.0,4.0,96,0.00,,,0.21,Wunderground v.1.15,2013-05-28 17:45:00,
2013-05-28 13:50:00,64.6,63.4,29.89,East,82,0.0,4.0,96,0.00,,,0.21,Wunderground v.1.15,2013-05-28 17:50:00,
2013-05-28 14:00:00,64.7,63.2,29.89,ESE,118,1.0,1.0,95,0.00,,,0.21,Wunderground v.1.15,2013-05-28 18:00:00,
2013-05-28 14:10:00,64.8,63.6,29.89,ESE,113,0.0,1.0,96,0.00,,,0.21,Wunderground v.1.15,2013-05-28 18:10:00,
2013-05-28 14:20:00,65.1,63.9,29.88,SE,124,1.0,1.0,96,0.00,,,0.21,Wunderground v.1.15,2013-05-28 18:20:00,
2013-05-28 14:25:00,65.4,64.2,29.87,ESE,120,1.0,1.0,96,0.00,,,0.21,Wunderground v.1.15,2013-05-28 18:25:00,
2013-05-28 14:35:00,66.3,65.1,29.87,East,100,1.0,1.0,96,0.00,,,0.21,Wunderground v.1.15,2013-05-28 18:35:00,
2013-05-28 14:45:00,66.8,65.6,29.86,ESE,123,1.0,1.0,96,0.00,,,0.21,Wunderground v.1.15,2013-05-28 18:45:00,
2013-05-28 14:55:00,67.2,66.0,29.86,ESE,105,1.0,5.0,96,0.00,,,0.21,Wunderground v.1.15,2013-05-28 18:55:00,
2013-05-28 15:05:00,67.5,66.3,29.87,ESE,105,0.0,5.0,96,0.00,,,0.21,Wunderground v.1.15,2013-05-28 19:05:00,
2013-05-28 15:15:00,68.1,66.9,29.87,ESE,105,0.0,5.0,96,0.00,,,0.21,Wunderground v.1.15,2013-05-28 19:15:00,
2013-05-28 15:25:00,69.0,67.2,29.87,ESE,107,1.0,5.0,94,0.00,,,0.21,Wunderground v.1.15,2013-05-28 19:25:00,
2013-05-28 15:30:00,69.6,67.8,29.87,East,98,1.0,5.0,94,0.00,,,0.21,Wunderground v.1.15,2013-05-28 19:30:00,
2013-05-28 15:40:00,70.5,68.4,29.87,ESE,117,1.0,5.0,93,0.00,,,0.21,Wunderground v.1.15,2013-05-28 19:40:00,
2013-05-28 15:50:00,70.5,68.1,29.86,ESE,110,0.0,5.0,92,0.00,,,0.21,Wunderground v.1.15,2013-05-28 19:50:00,
2013-05-28 15:55:00,70.4,68.0,29.87,ESE,110,0.0,5.0,92,0.00,,,0.21,Wunderground v.1.15,2013-05-28 19:55:00,
2013-05-28 16:00:00,70.4,68.3,29.87,ESE,110,0.0,0.0,93,0.00,,,0.21,Wunderground v.1.15,2013-05-28 20:00:00,
2013-05-28 16:05:00,70.5,68.7,29.87,NW,325,0.0,0.0,94,0.00,,,0.22,Wunderground v.1.15,2013-05-28 20:05:00,
2013-05-28 16:15:00,70.2,67.8,29.87,NNE,25,0.0,0.0,92,0.00,,,0.22,Wunderground v.1.15,2013-05-28 20:15:00,
2013-05-28 16:25:00,70.1,68.0,29.86,ESE,110,1.0,2.0,93,0.00,,,0.22,Wunderground v.1.15,2013-05-28 20:25:00,
2013-05-28 16:35:00,70.1,67.7,29.86,WNW,292,1.0,2.0,92,0.00,,,0.22,Wunderground v.1.15,2013-05-28 20:35:00,
2013-05-28 16:45:00,69.9,67.8,29.85,North,359,0.0,1.0,93,0.00,,,0.22,Wunderground v.1.15,2013-05-28 20:45:00,
2013-05-28 16:55:00,69.7,67.6,29.85,NW,316,0.0,3.0,93,0.00,,,0.22,Wunderground v.1.15,2013-05-28 20:55:00,
2013-05-28 17:05:00,70.0,68.2,29.85,WNW,297,0.0,3.0,94,0.00,,,0.22,Wunderground v.1.15,2013-05-28 21:05:00,
2013-05-28 17:15:00,71.2,69.4,29.85,ENE,68,0.0,3.0,94,0.00,,,0.22,Wunderground v.1.15,2013-05-28 21:15:00,
2013-05-28 17:25:00,71.8,69.3,29.85,ENE,72,0.0,3.0,92,0.00,,,0.22,Wunderground v.1.15,2013-05-28 21:25:00,
2013-05-28 17:35:00,71.7,69.3,29.85,ESE,116,0.0,3.0,92,0.00,,,0.22,Wunderground v.1.15,2013-05-28 21:35:00,
2013-05-28 17:45:00,71.8,69.3,29.84,ESE,113,0.0,3.0,92,0.00,,,0.22,Wunderground v.1.15,2013-05-28 21:45:00,
2013-05-28 17:55:00,71.6,69.2,29.84,ESE,105,1.0,3.0,92,0.00,,,0.22,Wunderground v.1.15,2013-05-28 21:55:00,
2013-05-28 18:00:00,71.6,69.5,29.84,ESE,105,1.0,1.0,93,0.00,,,0.22,Wunderground v.1.15,2013-05-28 22:00:00,
2013-05-28 18:10:00,71.0,68.6,29.83,ESE,115,1.0,1.0,92,0.00,,,0.22,Wunderground v.1.15,2013-05-28 22:10:00,
2013-05-28 18:15:00,70.8,69.0,29.85,WNW,283,1.0,1.0,94,0.00,,,0.22,Wunderground v.1.15,2013-05-28 22:15:00,
2013-05-28 18:25:00,70.8,69.0,29.84,ESE,113,0.0,0.0,94,0.00,,,0.22,Wunderground v.1.15,2013-05-28 22:25:00,
2013-05-28 18:35:00,71.2,69.4,29.84,West,274,0.0,0.0,94,0.00,,,0.22,Wunderground v.1.15,2013-05-28 22:35:00,
2013-05-28 18:40:00,71.7,69.3,29.83,WSW,252,0.0,0.0,92,0.00,,,0.22,Wunderground v.1.15,2013-05-28 22:40:00,
2013-05-28 18:50:00,72.6,69.5,29.83,WSW,253,0.0,3.0,90,0.00,,,0.22,Wunderground v.1.15,2013-05-28 22:50:00,
2013-05-28 19:00:00,73.1,69.7,29.83,West,277,0.0,3.0,89,0.00,,,0.22,Wunderground v.1.15,2013-05-28 23:00:00,
2013-05-28 19:10:00,73.6,69.8,29.84,West,278,0.0,3.0,88,0.00,,,0.22,Wunderground v.1.15,2013-05-28 23:10:00,
2013-05-28 19:15:00,73.6,69.8,29.84,West,273,0.0,3.0,88,0.00,,,0.22,Wunderground v.1.15,2013-05-28 23:15:00,
2013-05-28 19:25:00,73.6,69.8,29.84,West,260,0.0,3.0,88,0.00,,,0.22,Wunderground v.1.15,2013-05-28 23:25:00,
2013-05-28 19:35:00,73.4,69.6,29.84,WSW,242,0.0,3.0,88,0.00,,,0.22,Wunderground v.1.15,2013-05-28 23:35:00,
2013-05-28 19:45:00,73.5,69.7,29.84,WSW,251,0.0,3.0,88,0.00,,,0.22,Wunderground v.1.15,2013-05-28 23:45:00,
2013-05-28 19:55:00,73.6,69.8,29.83,WSW,252,0.0,3.0,88,0.00,,,0.22,Wunderground v.1.15,2013-05-28 23:55:00,
2013-05-28 20:00:00,73.5,69.7,29.83,North,11,0.0,1.0,88,0.00,,,0.22,Wunderground v.1.15,2013-05-29 00:00:00,
2013-05-28 20:10:00,73.3,69.9,29.83,South,183,0.0,0.0,89,0.00,,,0.22,Wunderground v.1.15,2013-05-29 00:10:00,
2013-05-28 20:15:00,73.1,69.7,29.83,South,184,0.0,0.0,89,0.00,,,0.22,Wunderground v.1.15,2013-05-29 00:15:00,
2013-05-28 20:25:00,72.5,69.4,29.83,ESE,104,0.0,0.0,90,0.00,,,0.22,Wunderground v.1.15,2013-05-29 00:25:00,
2013-05-28 20:35:00,72.0,69.5,29.83,East,86,0.0,0.0,92,0.00,,,0.22,Wunderground v.1.15,2013-05-29 00:35:00,
2013-05-28 20:45:00,71.4,69.0,29.83,East,86,0.0,0.0,92,0.00,,,0.22,Wunderground v.1.15,2013-05-29 00:45:00,
2013-05-28 20:55:00,71.0,68.9,29.82,ESE,117,0.0,2.0,93,0.00,,,0.22,Wunderground v.1.15,2013-05-29 00:55:00,
2013-05-28 21:05:00,70.5,68.7,29.82,SE,132,0.0,2.0,94,0.00,,,0.22,Wunderground v.1.15,2013-05-29 01:05:00,
2013-05-28 21:15:00,70.2,68.4,29.82,SE,132,0.0,2.0,94,0.00,,,0.22,Wunderground v.1.15,2013-05-29 01:15:00,
2013-05-28 21:25:00,70.1,68.6,29.82,SE,132,0.0,2.0,95,0.00,,,0.22,Wunderground v.1.15,2013-05-29 01:25:00,
2013-05-28 21:35:00,70.1,68.3,29.81,East,91,0.0,2.0,94,0.00,,,0.22,Wunderground v.1.15,2013-05-29 01:35:00,
2013-05-28 21:45:00,70.6,68.2,29.81,West,266,0.0,2.0,92,0.00,,,0.22,Wunderground v.1.15,2013-05-29 01:45:00,
2013-05-28 21:55:00,71.2,68.1,29.82,WSW,250,0.0,2.0,90,0.00,,,0.22,Wunderground v.1.15,2013-05-29 01:55:00,
2013-05-28 22:00:00,71.5,68.1,29.82,WSW,249,0.0,0.0,89,0.00,,,0.22,Wunderground v.1.15,2013-05-29 02:00:00,
2013-05-28 22:10:00,71.9,68.2,29.83,WSW,255,0.0,0.0,88,0.00,,,0.22,Wunderground v.1.15,2013-05-29 02:10:00,
2013-05-28 22:15:00,72.1,68.3,29.82,WSW,255,0.0,0.0,88,0.00,,,0.22,Wunderground v.1.15,2013-05-29 02:15:00,
2013-05-28 22:25:00,72.5,68.4,29.82,SSE,151,0.0,0.0,87,0.00,,,0.22,Wunderground v.1.15,2013-05-29 02:25:00,
2013-05-28 22:35:00,72.5,68.4,29.82,West,267,0.0,0.0,87,0.00,,,0.22,Wunderground v.1.15,2013-05-29 02:35:00,
2013-05-28 22:45:00,72.7,68.3,29.82,NW,308,0.0,1.0,86,0.00,,,0.22,Wunderground v.1.15,2013-05-29 02:45:00,
2013-05-28 22:55:00,72.7,68.3,29.82,West,269,0.0,3.0,86,0.00,,,0.22,Wunderground v.1.15,2013-05-29 02:55:00,
2013-05-28 23:00:00,72.8,68.4,29.82,WSW,256,0.0,3.0,86,0.00,,,0.22,Wunderground v.1.15,2013-05-29 03:00:00,
2013-05-28 23:10:00,73.0,68.2,29.82,WSW,245,0.0,3.0,85,0.00,,,0.22,Wunderground v.1.15,2013-05-29 03:10:00,
2013-05-28 23:15:00,73.1,68.0,29.81,SE,129,0.0,3.0,84,0.00,,,0.22,Wunderground v.1.15,2013-05-29 03:15:00,
2013-05-28 23:25:00,73.2,68.1,29.81,SSW,208,0.0,3.0,84,0.00,,,0.22,Wunderground v.1.15,2013-05-29 03:25:00,
2013-05-28 23:35:00,73.1,68.0,29.81,SSW,199,0.0,3.0,84,0.00,,,0.22,Wunderground v.1.15,2013-05-29 03:35:00,
2013-05-28 23:45:00,73.0,67.5,29.82,WSW,249,0.0,3.0,83,0.00,,,0.22,Wunderground v.1.15,2013-05-29 03:45:00,
2013-05-28 23:55:00,73.2,67.4,29.81,SE,137,0.0,3.0,82,0.00,,,0.22,Wunderground v.1.15,2013-05-29 03:55:00,